Time;durP1;ratioP1;P1;durP2;ratioP2;P2;SDS_P1;SDS_P2;PMS_P1;PMS_P2;Temp;Humidity;BMP_temperature;BMP_pressure;BME280_temperature;BME280_humidity;BME280_pressure;Samples;Min_cycle;Max_cycle;Signal;HPM_P1;HPM_P2
2023/04/13 00:02:25;;;;;;;2.95;0.93;;;;;;;;;;5106798;28;20047;-70
2023/04/13 00:04:53;;;;;;;3.83;1.00;;;;;;;;;;5102904;28;20077;-70
2023/04/13 00:07:21;;;;;;;3.35;0.90;;;;;;;;;;5107509;28;20083;-70
2023/04/13 00:09:49;;;;;;;4.40;0.90;;;;;;;;;;5102567;28;20411;-70
2023/04/13 00:12:17;;;;;;;2.13;0.70;;;;;;;;;;5107208;28;20052;-70
2023/04/13 00:14:45;;;;;;;4.57;0.90;;;;;;;;;;5104142;28;20047;-70
2023/04/13 00:17:14;;;;;;;2.08;1.00;;;;;;;;;;5103562;28;20055;-70
2023/04/13 00:19:41;;;;;;;4.13;1.35;;;;;;;;;;5105099;28;20079;-70
2023/04/13 00:22:09;;;;;;;4.50;0.98;;;;;;;;;;5106920;28;20051;-70
2023/04/13 00:24:36;;;;;;;2.30;1.05;;;;;;;;;;5102670;28;20080;-70
2023/04/13 00:27:04;;;;;;;2.45;1.10;;;;;;;;;;5106373;28;20051;-69
2023/04/13 00:29:31;;;;;;;3.22;0.85;;;;;;;;;;5104544;28;20135;-69
2023/04/13 00:31:58;;;;;;;3.67;1.00;;;;;;;;;;5106674;28;20055;-69
2023/04/13 00:34:27;;;;;;;3.60;1.20;;;;;;;;;;5098888;28;20048;-69
2023/04/13 00:36:54;;;;;;;3.38;1.10;;;;;;;;;;5102233;28;20058;-69
2023/04/13 00:39:24;;;;;;;1.70;0.75;;;;;;;;;;5106852;28;20043;-69
2023/04/13 00:41:51;;;;;;;3.85;1.10;;;;;;;;;;5104012;28;20096;-68
2023/04/13 00:44:20;;;;;;;4.85;0.82;;;;;;;;;;5106947;28;20048;-68
2023/04/13 00:46:49;;;;;;;3.17;0.80;;;;;;;;;;5105547;28;20112;-69
2023/04/13 00:49:16;;;;;;;3.35;0.73;;;;;;;;;;5098420;28;20450;-68
2023/04/13 00:51:45;;;;;;;3.40;0.88;;;;;;;;;;5106852;28;20678;-68
2023/04/13 00:54:14;;;;;;;2.75;0.80;;;;;;;;;;5106015;28;20063;-68
2023/04/13 00:56:42;;;;;;;2.72;0.88;;;;;;;;;;5104362;28;20043;-69
2023/04/13 00:59:09;;;;;;;3.65;1.00;;;;;;;;;;5106149;28;20044;-69
2023/04/13 01:01:44;;;;;;;3.67;1.05;;;;;;;;;;5106367;28;20128;-68
2023/04/13 01:04:12;;;;;;;2.63;0.90;;;;;;;;;;5103527;28;20152;-68
2023/04/13 01:06:43;;;;;;;3.92;1.10;;;;;;;;;;5105136;28;20074;-68
2023/04/13 01:09:15;;;;;;;2.67;1.00;;;;;;;;;;5108226;28;20040;-68
2023/04/13 01:11:44;;;;;;;5.85;1.08;;;;;;;;;;5104108;28;20051;-68
2023/04/13 01:14:13;;;;;;;3.28;1.00;;;;;;;;;;5101535;28;20044;-68
2023/04/13 01:16:43;;;;;;;4.72;1.10;;;;;;;;;;5108116;28;20055;-69
2023/04/13 01:19:11;;;;;;;3.13;0.90;;;;;;;;;;5104113;28;20062;-69
2023/04/13 01:21:39;;;;;;;3.30;1.10;;;;;;;;;;5106059;28;20052;-69
2023/04/13 01:24:09;;;;;;;4.35;1.10;;;;;;;;;;5098247;28;20040;-68
2023/04/13 01:26:44;;;;;;;3.95;1.17;;;;;;;;;;5111008;28;20062;-68
2023/04/13 01:29:13;;;;;;;3.58;1.10;;;;;;;;;;5106807;27;20043;-69
2023/04/13 01:31:41;;;;;;;5.40;1.25;;;;;;;;;;5101970;28;20075;-68
2023/04/13 01:34:08;;;;;;;5.32;1.60;;;;;;;;;;5110246;27;20046;-68
2023/04/13 01:36:35;;;;;;;2.63;1.00;;;;;;;;;;5105369;27;20043;-69
2023/04/13 01:39:04;;;;;;;2.95;1.13;;;;;;;;;;5105085;27;20487;-68
2023/04/13 01:41:31;;;;;;;2.92;1.17;;;;;;;;;;5110730;28;20043;-69
2023/04/13 01:43:58;;;;;;;4.88;1.20;;;;;;;;;;5109757;27;20075;-69
2023/04/13 01:46:29;;;;;;;1.83;0.90;;;;;;;;;;5111049;27;20058;-68
2023/04/13 01:48:59;;;;;;;6.15;1.35;;;;;;;;;;5100619;28;20459;-69
2023/04/13 01:51:28;;;;;;;3.28;1.20;;;;;;;;;;5107505;27;20557;-69
2023/04/13 01:54:01;;;;;;;5.32;1.20;;;;;;;;;;5103387;28;20051;-68
2023/04/13 01:56:29;;;;;;;2.53;0.90;;;;;;;;;;5106717;28;20043;-68
2023/04/13 01:58:58;;;;;;;7.70;1.02;;;;;;;;;;5108459;28;20052;-68
2023/04/13 02:01:26;;;;;;;3.13;1.10;;;;;;;;;;5107784;28;20052;-69
2023/04/13 02:03:55;;;;;;;4.80;1.30;;;;;;;;;;5107000;28;20043;-69
2023/04/13 02:06:23;;;;;;;4.85;1.73;;;;;;;;;;5107120;28;20047;-68
2023/04/13 02:08:50;;;;;;;3.75;1.42;;;;;;;;;;5106919;28;20048;-69
2023/04/13 02:11:18;;;;;;;4.93;1.30;;;;;;;;;;5106397;27;20518;-68
2023/04/13 02:13:45;;;;;;;4.50;1.10;;;;;;;;;;5110510;28;20051;-68
2023/04/13 02:16:12;;;;;;;2.63;1.02;;;;;;;;;;5107985;28;20383;-68
2023/04/13 02:18:39;;;;;;;4.32;1.55;;;;;;;;;;5108007;28;20071;-69
2023/04/13 02:21:10;;;;;;;4.38;1.23;;;;;;;;;;5109005;28;20437;-68
2023/04/13 02:23:37;;;;;;;8.05;1.75;;;;;;;;;;5108493;27;20097;-68
2023/04/13 02:26:07;;;;;;;4.05;1.30;;;;;;;;;;5109676;27;20411;-68
2023/04/13 02:28:35;;;;;;;3.33;1.40;;;;;;;;;;5111168;27;20043;-68
2023/04/13 02:31:02;;;;;;;2.63;1.20;;;;;;;;;;5100262;28;20054;-68
2023/04/13 02:33:30;;;;;;;6.63;1.52;;;;;;;;;;5109684;28;20044;-68
2023/04/13 02:35:57;;;;;;;2.70;1.48;;;;;;;;;;5108997;28;20120;-69
2023/04/13 02:38:27;;;;;;;2.42;1.15;;;;;;;;;;5105909;27;20513;-71
2023/04/13 02:40:57;;;;;;;2.92;0.88;;;;;;;;;;5109970;28;20044;-71
2023/04/13 02:43:25;;;;;;;1.50;0.60;;;;;;;;;;5108192;28;20054;-71
2023/04/13 02:45:53;;;;;;;1.33;0.55;;;;;;;;;;5108948;27;20040;-71
2023/04/13 02:48:20;;;;;;;2.53;0.60;;;;;;;;;;5105284;28;20056;-71
2023/04/13 02:50:47;;;;;;;3.65;0.40;;;;;;;;;;5109678;28;20054;-71
2023/04/13 02:53:15;;;;;;;1.92;0.40;;;;;;;;;;5106638;28;20048;-71
2023/04/13 02:59:06;;;;;;;3.97;0.50;;;;;;;;;;5103699;28;20081;-71
2023/04/13 03:01:33;;;;;;;1.50;0.35;;;;;;;;;;5105840;27;20048;-71
2023/04/13 03:04:01;;;;;;;1.70;0.50;;;;;;;;;;5105740;28;20058;-71
2023/04/13 03:06:30;;;;;;;3.03;0.40;;;;;;;;;;5104138;28;20047;-70
2023/04/13 03:08:58;;;;;;;1.70;0.40;;;;;;;;;;5104197;28;20094;-71
2023/04/13 03:11:25;;;;;;;4.45;0.50;;;;;;;;;;5106094;27;20100;-71
2023/04/13 03:13:53;;;;;;;2.13;0.52;;;;;;;;;;5105003;27;20096;-70
2023/04/13 03:16:22;;;;;;;3.13;0.65;;;;;;;;;;5108364;28;20448;-70
2023/04/13 03:18:50;;;;;;;3.55;0.98;;;;;;;;;;5105706;28;20053;-70
2023/04/13 03:21:17;;;;;;;2.45;1.00;;;;;;;;;;5108204;28;20062;-70
2023/04/13 03:23:44;;;;;;;4.43;1.38;;;;;;;;;;5105367;28;20498;-71
2023/04/13 03:26:12;;;;;;;6.53;1.58;;;;;;;;;;5107194;28;20510;-70
2023/04/13 03:28:39;;;;;;;3.20;1.20;;;;;;;;;;5105482;28;20055;-71
2023/04/13 03:31:06;;;;;;;3.72;1.35;;;;;;;;;;5106421;28;20117;-70
2023/04/13 03:33:35;;;;;;;2.72;1.50;;;;;;;;;;5106327;27;20051;-70
2023/04/13 03:36:04;;;;;;;4.93;1.58;;;;;;;;;;5109378;28;20530;-70
2023/04/13 03:38:31;;;;;;;4.90;1.52;;;;;;;;;;5106126;28;20051;-70
2023/04/13 03:40:58;;;;;;;3.53;1.63;;;;;;;;;;5109210;28;20047;-71
2023/04/13 03:43:26;;;;;;;3.00;1.33;;;;;;;;;;5107565;28;20051;-70
2023/04/13 03:45:53;;;;;;;7.57;1.58;;;;;;;;;;5107130;28;20039;-71
2023/04/13 03:48:20;;;;;;;5.20;1.30;;;;;;;;;;5099427;27;20425;-71
2023/04/13 03:50:49;;;;;;;3.60;1.50;;;;;;;;;;5104822;28;20044;-70
2023/04/13 03:53:16;;;;;;;3.88;1.15;;;;;;;;;;5101694;28;20495;-70
2023/04/13 03:55:43;;;;;;;4.65;1.33;;;;;;;;;;5108880;28;20047;-71
2023/04/13 03:58:11;;;;;;;2.92;1.17;;;;;;;;;;5106867;28;20046;-70
2023/04/13 04:00:38;;;;;;;5.10;1.42;;;;;;;;;;5107012;28;20092;-71
2023/04/13 04:03:05;;;;;;;5.90;1.70;;;;;;;;;;5108968;28;20100;-70
2023/04/13 04:05:32;;;;;;;8.40;1.85;;;;;;;;;;5106532;28;20414;-70
2023/04/13 04:08:01;;;;;;;5.72;1.55;;;;;;;;;;5106753;28;20059;-71
2023/04/13 04:10:28;;;;;;;6.55;1.30;;;;;;;;;;5105128;28;20039;-70
2023/04/13 04:12:56;;;;;;;5.00;1.60;;;;;;;;;;5106498;28;20051;-70
2023/04/13 04:15:23;;;;;;;4.15;1.50;;;;;;;;;;5105663;28;20122;-71
2023/04/13 04:17:51;;;;;;;6.05;1.80;;;;;;;;;;5106614;28;20058;-70
2023/04/13 04:20:18;;;;;;;8.60;2.00;;;;;;;;;;5107102;28;20044;-70
2023/04/13 04:22:46;;;;;;;7.07;2.00;;;;;;;;;;5109123;28;20047;-70
2023/04/13 04:25:20;;;;;;;7.65;2.03;;;;;;;;;;5105384;28;20059;-71
2023/04/13 04:27:48;;;;;;;8.73;2.17;;;;;;;;;;5108774;28;20054;-70
2023/04/13 04:30:17;;;;;;;10.68;2.08;;;;;;;;;;5106688;28;20036;-71
2023/04/13 04:32:45;;;;;;;8.35;2.10;;;;;;;;;;5108634;28;20044;-70
2023/04/13 04:35:13;;;;;;;14.48;2.53;;;;;;;;;;5106371;28;20150;-70
2023/04/13 04:37:40;;;;;;;8.88;2.20;;;;;;;;;;5106862;28;20043;-71
2023/04/13 04:40:08;;;;;;;12.18;2.00;;;;;;;;;;5104773;28;20047;-70
2023/04/13 04:42:37;;;;;;;7.07;2.22;;;;;;;;;;5108027;28;20043;-70
2023/04/13 04:45:04;;;;;;;7.45;2.17;;;;;;;;;;5106618;28;20150;-70
2023/04/13 04:47:31;;;;;;;9.63;2.15;;;;;;;;;;5107397;28;20051;-70
2023/04/13 04:50:00;;;;;;;10.80;2.40;;;;;;;;;;5106105;28;20047;-70
2023/04/13 04:52:28;;;;;;;9.88;2.40;;;;;;;;;;5107777;28;20403;-70
2023/04/13 04:54:55;;;;;;;8.57;2.60;;;;;;;;;;5107083;28;20402;-71
2023/04/13 04:57:23;;;;;;;8.75;2.10;;;;;;;;;;5107972;28;20490;-70
2023/04/13 04:59:51;;;;;;;18.08;3.28;;;;;;;;;;5104535;28;20040;-70
2023/04/13 05:02:19;;;;;;;10.98;3.35;;;;;;;;;;5108821;27;20044;-71
2023/04/13 05:04:46;;;;;;;13.25;2.10;;;;;;;;;;5110776;28;20058;-70
2023/04/13 05:07:16;;;;;;;13.52;2.40;;;;;;;;;;5111311;28;20063;-71
2023/04/13 05:09:44;;;;;;;10.30;2.63;;;;;;;;;;5110317;28;20043;-70
2023/04/13 05:12:11;;;;;;;10.82;2.58;;;;;;;;;;5110639;28;20139;-70
2023/04/13 05:14:39;;;;;;;16.17;2.30;;;;;;;;;;5111628;28;20416;-70
2023/04/13 05:17:07;;;;;;;9.75;2.08;;;;;;;;;;5103924;28;20112;-70
2023/04/13 05:19:35;;;;;;;10.48;2.10;;;;;;;;;;5110544;28;20052;-69
2023/04/13 05:22:02;;;;;;;11.45;2.45;;;;;;;;;;5110896;28;20438;-72
2023/04/13 05:24:29;;;;;;;13.18;2.20;;;;;;;;;;5110231;28;20055;-71
2023/04/13 05:26:57;;;;;;;15.95;2.22;;;;;;;;;;5110585;28;20055;-71
2023/04/13 05:29:24;;;;;;;11.13;2.08;;;;;;;;;;5108826;28;20043;-71
2023/04/13 05:31:52;;;;;;;15.48;2.00;;;;;;;;;;5108810;28;20403;-71
2023/04/13 05:34:21;;;;;;;13.13;1.95;;;;;;;;;;5109562;28;20050;-71
2023/04/13 05:36:49;;;;;;;14.13;2.45;;;;;;;;;;5102574;28;20126;-71
2023/04/13 05:39:16;;;;;;;16.13;1.80;;;;;;;;;;5099552;28;20421;-71
2023/04/13 05:41:43;;;;;;;11.98;1.95;;;;;;;;;;5107116;28;20052;-71
2023/04/13 05:44:10;;;;;;;11.52;2.13;;;;;;;;;;5110834;27;20047;-71
2023/04/13 05:46:38;;;;;;;14.68;2.40;;;;;;;;;;5110851;27;20052;-70
2023/04/13 05:49:05;;;;;;;9.98;1.58;;;;;;;;;;5111151;28;20410;-70
2023/04/13 05:51:34;;;;;;;8.68;1.98;;;;;;;;;;5107314;27;20559;-70
2023/04/13 05:54:02;;;;;;;7.45;1.70;;;;;;;;;;5109685;27;20043;-71
2023/04/13 05:56:29;;;;;;;8.95;1.80;;;;;;;;;;5108887;28;20513;-71
2023/04/13 05:58:57;;;;;;;14.40;2.80;;;;;;;;;;5110340;28;20494;-71
2023/04/13 06:01:24;;;;;;;13.07;2.60;;;;;;;;;;5109788;28;20067;-71
2023/04/13 06:03:52;;;;;;;7.57;2.70;;;;;;;;;;5108988;28;20047;-71
2023/04/13 06:06:20;;;;;;;15.02;3.45;;;;;;;;;;5107503;27;20043;-71
2023/04/13 06:08:48;;;;;;;12.57;2.97;;;;;;;;;;5109721;28;20091;-70
2023/04/13 06:11:15;;;;;;;12.68;3.83;;;;;;;;;;5104841;28;20044;-71
2023/04/13 06:13:43;;;;;;;8.30;3.00;;;;;;;;;;5110211;28;20398;-70
2023/04/13 06:16:11;;;;;;;16.08;3.25;;;;;;;;;;5108067;28;20096;-71
2023/04/13 06:18:38;;;;;;;19.55;3.92;;;;;;;;;;5108983;28;20051;-71
2023/04/13 06:21:05;;;;;;;14.77;4.30;;;;;;;;;;5108380;27;20066;-71
2023/04/13 06:23:33;;;;;;;15.82;4.45;;;;;;;;;;5108736;28;20058;-71
2023/04/13 06:26:01;;;;;;;11.85;3.45;;;;;;;;;;5106434;27;20051;-71
2023/04/13 06:28:30;;;;;;;16.65;3.75;;;;;;;;;;5108737;28;20051;-71
2023/04/13 06:30:57;;;;;;;17.35;3.58;;;;;;;;;;5108410;28;20055;-71
2023/04/13 06:33:25;;;;;;;15.00;3.33;;;;;;;;;;5110021;28;20052;-70
2023/04/13 06:35:52;;;;;;;15.65;3.42;;;;;;;;;;5107422;27;20711;-65
2023/04/13 06:38:19;;;;;;;9.70;2.78;;;;;;;;;;5104932;27;20052;-66
2023/04/13 06:40:47;;;;;;;11.02;3.00;;;;;;;;;;5106146;28;20051;-65
2023/04/13 06:43:15;;;;;;;12.02;2.40;;;;;;;;;;5108324;27;20070;-65
2023/04/13 06:45:42;;;;;;;10.57;2.67;;;;;;;;;;5112393;27;20448;-65
2023/04/13 06:48:10;;;;;;;11.20;2.08;;;;;;;;;;5107614;28;20056;-65
2023/04/13 06:50:37;;;;;;;10.50;2.28;;;;;;;;;;5102980;28;20063;-65
2023/04/13 06:53:04;;;;;;;13.23;2.13;;;;;;;;;;5106523;27;20056;-65
2023/04/13 06:55:32;;;;;;;11.65;1.80;;;;;;;;;;5106556;28;20047;-65
2023/04/13 06:57:59;;;;;;;12.90;2.10;;;;;;;;;;5103465;28;20407;-65
2023/04/13 07:00:28;;;;;;;23.35;3.65;;;;;;;;;;5108751;27;20048;-65
2023/04/13 07:02:55;;;;;;;8.68;1.75;;;;;;;;;;5107656;28;20051;-65
2023/04/13 07:05:22;;;;;;;12.48;1.90;;;;;;;;;;5106253;27;20055;-64
2023/04/13 07:07:50;;;;;;;12.45;1.90;;;;;;;;;;5108160;28;20040;-65
2023/04/13 07:10:17;;;;;;;10.60;1.75;;;;;;;;;;5103765;28;20318;-64
2023/04/13 07:12:45;;;;;;;11.38;1.67;;;;;;;;;;5106682;27;20059;-65
2023/04/13 07:15:12;;;;;;;7.43;1.50;;;;;;;;;;5108560;27;20079;-65
2023/04/13 07:17:41;;;;;;;14.38;2.42;;;;;;;;;;5106544;28;20040;-65
2023/04/13 07:20:09;;;;;;;16.35;2.47;;;;;;;;;;5107437;28;20048;-67
2023/04/13 07:22:37;;;;;;;7.45;1.65;;;;;;;;;;5107422;28;20044;-68
2023/04/13 07:25:04;;;;;;;8.70;1.40;;;;;;;;;;5104140;28;20043;-68
2023/04/13 07:27:32;;;;;;;11.95;1.83;;;;;;;;;;5107615;28;20047;-65
2023/04/13 07:30:00;;;;;;;8.75;1.45;;;;;;;;;;5107057;28;20379;-65
2023/04/13 07:32:27;;;;;;;9.50;2.03;;;;;;;;;;5105071;28;20051;-64
2023/04/13 07:35:00;;;;;;;13.18;1.90;;;;;;;;;;5106145;28;20043;-65
2023/04/13 07:37:27;;;;;;;13.07;2.10;;;;;;;;;;5107950;28;20047;-65
2023/04/13 07:39:54;;;;;;;13.10;1.95;;;;;;;;;;5102040;28;20097;-65
2023/04/13 07:42:21;;;;;;;17.98;2.20;;;;;;;;;;5107475;28;20054;-65
2023/04/13 07:44:49;;;;;;;10.95;1.75;;;;;;;;;;5107980;28;20070;-65
2023/04/13 07:47:16;;;;;;;11.57;1.60;;;;;;;;;;5107386;28;20128;-65
2023/04/13 07:49:43;;;;;;;8.38;1.75;;;;;;;;;;5102413;28;20047;-65
2023/04/13 07:52:13;;;;;;;4.70;0.68;;;;;;;;;;5107422;28;20073;-65
2023/04/13 07:54:40;;;;;;;4.47;0.60;;;;;;;;;;5103823;27;20046;-65
2023/04/13 07:57:08;;;;;;;4.00;0.60;;;;;;;;;;5106503;28;20079;-65
2023/04/13 07:59:35;;;;;;;5.65;0.75;;;;;;;;;;5104037;28;20055;-65
2023/04/13 08:02:03;;;;;;;5.45;0.70;;;;;;;;;;5107024;28;20057;-65
2023/04/13 08:04:30;;;;;;;3.55;0.70;;;;;;;;;;5105378;28;20589;-65
2023/04/13 08:06:57;;;;;;;2.70;0.43;;;;;;;;;;5107895;28;20750;-65
2023/04/13 08:09:27;;;;;;;8.73;0.75;;;;;;;;;;5105672;28;20092;-65
2023/04/13 08:11:54;;;;;;;3.75;0.60;;;;;;;;;;5107780;28;20328;-65
2023/04/13 08:14:22;;;;;;;3.17;0.63;;;;;;;;;;5104604;28;20051;-65
2023/04/13 08:16:49;;;;;;;4.90;0.80;;;;;;;;;;5107574;28;20044;-65
2023/04/13 08:19:16;;;;;;;10.95;1.08;;;;;;;;;;5106025;28;20047;-65
2023/04/13 08:21:44;;;;;;;5.07;1.10;;;;;;;;;;5106365;28;20069;-65
2023/04/13 08:24:11;;;;;;;3.30;0.75;;;;;;;;;;5105495;28;20506;-65
2023/04/13 08:26:40;;;;;;;7.78;1.48;;;;;;;;;;5105917;28;20059;-66
2023/04/13 08:29:07;;;;;;;6.47;1.02;;;;;;;;;;5107011;28;20056;-66
2023/04/13 08:31:35;;;;;;;7.03;0.73;;;;;;;;;;5105623;28;20047;-65
2023/04/13 08:34:03;;;;;;;3.60;0.40;;;;;;;;;;5106023;28;20047;-65
2023/04/13 08:36:30;;;;;;;4.22;0.52;;;;;;;;;;5110273;28;20106;-65
2023/04/13 08:38:58;;;;;;;4.00;0.57;;;;;;;;;;5109996;28;20113;-65
2023/04/13 08:41:25;;;;;;;5.97;0.63;;;;;;;;;;5111056;27;20410;-65
2023/04/13 08:43:55;;;;;;;5.80;0.60;;;;;;;;;;5106599;28;20051;-65
2023/04/13 08:46:22;;;;;;;5.40;0.50;;;;;;;;;;5111081;27;20060;-65
2023/04/13 08:48:50;;;;;;;3.03;0.43;;;;;;;;;;5110453;28;20043;-66
2023/04/13 08:51:18;;;;;;;3.63;0.38;;;;;;;;;;5109087;27;20050;-65
2023/04/13 08:53:46;;;;;;;4.13;0.50;;;;;;;;;;5111277;28;20103;-66
2023/04/13 08:56:15;;;;;;;3.20;0.50;;;;;;;;;;5108880;27;20051;-65
2023/04/13 08:58:42;;;;;;;2.38;0.43;;;;;;;;;;5109900;28;20051;-66
2023/04/13 09:01:12;;;;;;;5.80;0.50;;;;;;;;;;5108907;28;20035;-65
2023/04/13 09:03:44;;;;;;;8.40;1.05;;;;;;;;;;5112210;28;20044;-66
2023/04/13 09:06:12;;;;;;;6.07;0.70;;;;;;;;;;5108660;27;20521;-66
2023/04/13 09:08:43;;;;;;;6.70;0.80;;;;;;;;;;5107400;28;20551;-65
2023/04/13 09:11:10;;;;;;;5.40;1.05;;;;;;;;;;5110604;27;20051;-66
2023/04/13 09:13:38;;;;;;;9.27;1.00;;;;;;;;;;5109763;28;20048;-65
2023/04/13 09:16:06;;;;;;;2.58;0.68;;;;;;;;;;5109385;28;20047;-66
2023/04/13 09:18:34;;;;;;;6.30;0.80;;;;;;;;;;5110797;28;20043;-65
2023/04/13 09:21:02;;;;;;;10.52;1.23;;;;;;;;;;5109677;28;20079;-66
2023/04/13 09:23:29;;;;;;;21.75;1.27;;;;;;;;;;5108876;28;20055;-66
2023/04/13 09:26:07;;;;;;;4.40;0.98;;;;;;;;;;5108218;28;20043;-65
2023/04/13 09:28:34;;;;;;;8.40;1.13;;;;;;;;;;5107779;28;20051;-66
2023/04/13 09:31:04;;;;;;;5.03;0.68;;;;;;;;;;5108382;28;20375;-66
2023/04/13 09:33:32;;;;;;;10.38;1.55;;;;;;;;;;5109116;28;20055;-66
2023/04/13 09:36:09;;;;;;;7.45;0.77;;;;;;;;;;5105263;27;20055;-66
2023/04/13 09:38:36;;;;;;;9.45;1.63;;;;;;;;;;5107483;28;20166;-68
2023/04/13 09:41:03;;;;;;;9.88;1.00;;;;;;;;;;5107641;27;20510;-66
2023/04/13 09:43:35;;;;;;;6.13;0.88;;;;;;;;;;5108819;28;20547;-66
2023/04/13 09:46:02;;;;;;;5.25;1.23;;;;;;;;;;5106829;28;20051;-66
2023/04/13 09:48:30;;;;;;;13.18;1.05;;;;;;;;;;5109853;28;20099;-65
2023/04/13 09:51:04;;;;;;;7.53;1.27;;;;;;;;;;5110026;28;20130;-65
2023/04/13 09:53:41;;;;;;;3.67;0.80;;;;;;;;;;5110223;28;20047;-65
2023/04/13 09:56:08;;;;;;;7.90;1.08;;;;;;;;;;5107280;28;20051;-65
2023/04/13 09:58:38;;;;;;;8.38;1.20;;;;;;;;;;5108828;28;20040;-66
2023/04/13 10:01:05;;;;;;;8.52;1.08;;;;;;;;;;5106545;28;20039;-65
2023/04/13 10:03:35;;;;;;;6.88;0.95;;;;;;;;;;5109114;28;20051;-65
2023/04/13 10:06:06;;;;;;;5.30;0.80;;;;;;;;;;5106340;28;20047;-66
2023/04/13 10:08:33;;;;;;;9.98;1.30;;;;;;;;;;5109470;28;20050;-65
2023/04/13 10:11:01;;;;;;;8.27;1.20;;;;;;;;;;5108179;27;20502;-65
2023/04/13 10:13:31;;;;;;;8.82;1.30;;;;;;;;;;5109506;28;20059;-65
2023/04/13 10:16:08;;;;;;;5.10;0.90;;;;;;;;;;5107690;28;20091;-66
2023/04/13 10:18:42;;;;;;;6.85;0.98;;;;;;;;;;5110467;28;20086;-66
2023/04/13 10:21:11;;;;;;;7.10;1.02;;;;;;;;;;5107184;27;20071;-65
2023/04/13 10:23:38;;;;;;;5.93;1.30;;;;;;;;;;5109586;28;20048;-65
2023/04/13 10:26:06;;;;;;;8.15;1.10;;;;;;;;;;5105591;28;20047;-65
2023/04/13 10:28:42;;;;;;;7.10;0.98;;;;;;;;;;5104415;28;20051;-65
2023/04/13 10:31:10;;;;;;;5.03;0.88;;;;;;;;;;5108632;28;20048;-66
2023/04/13 10:33:48;;;;;;;9.02;1.70;;;;;;;;;;5109195;27;20552;-66
2023/04/13 10:36:16;;;;;;;7.47;1.23;;;;;;;;;;5107952;28;20077;-68
2023/04/13 10:38:44;;;;;;;4.63;0.70;;;;;;;;;;5109211;28;20040;-65
2023/04/13 10:41:23;;;;;;;6.47;0.95;;;;;;;;;;5106481;28;20047;-67
2023/04/13 10:44:00;;;;;;;7.45;1.35;;;;;;;;;;5107513;28;20109;-67
2023/04/13 10:46:28;;;;;;;5.32;1.00;;;;;;;;;;5106281;27;20052;-68
2023/04/13 10:48:57;;;;;;;1.38;0.40;;;;;;;;;;5110836;27;20109;-66
2023/04/13 10:51:26;;;;;;;6.72;0.73;;;;;;;;;;5108159;27;20047;-66
2023/04/13 10:53:54;;;;;;;2.75;0.57;;;;;;;;;;5110117;28;20375;-66
2023/04/13 10:56:21;;;;;;;5.10;0.90;;;;;;;;;;5107077;28;20075;-67
2023/04/13 10:58:52;;;;;;;8.75;1.08;;;;;;;;;;5110377;27;20402;-68
2023/04/13 11:01:21;;;;;;;6.18;1.00;;;;;;;;;;5105155;28;20071;-66
2023/04/13 11:03:49;;;;;;;3.45;0.85;;;;;;;;;;5106274;27;20047;-66
2023/04/13 11:06:16;;;;;;;12.85;0.77;;;;;;;;;;5105338;28;20122;-66
2023/04/13 11:08:45;;;;;;;5.30;0.60;;;;;;;;;;5108189;28;20047;-65
2023/04/13 11:11:12;;;;;;;3.28;0.60;;;;;;;;;;5105479;28;20132;-65
2023/04/13 11:13:46;;;;;;;5.28;0.70;;;;;;;;;;5108300;28;20398;-65
2023/04/13 11:16:13;;;;;;;5.38;0.60;;;;;;;;;;5107502;27;20516;-65
2023/04/13 11:18:41;;;;;;;3.63;0.52;;;;;;;;;;5108301;27;20044;-64
2023/04/13 11:21:15;;;;;;;7.15;0.70;;;;;;;;;;5106930;28;20070;-65
2023/04/13 11:23:42;;;;;;;7.45;0.90;;;;;;;;;;5107142;28;20053;-65
2023/04/13 11:26:13;;;;;;;5.90;0.82;;;;;;;;;;5105742;28;20054;-64
2023/04/13 11:28:41;;;;;;;13.27;1.30;;;;;;;;;;5106610;28;20051;-65
2023/04/13 11:31:10;;;;;;;14.77;1.55;;;;;;;;;;5106052;28;20517;-65
2023/04/13 11:33:37;;;;;;;14.35;1.75;;;;;;;;;;5104082;28;20056;-65
2023/04/13 11:36:05;;;;;;;15.48;2.08;;;;;;;;;;5106148;28;20059;-65
2023/04/13 11:38:32;;;;;;;19.55;2.95;;;;;;;;;;5106618;28;21248;-65
2023/04/13 11:41:03;;;;;;;19.58;2.88;;;;;;;;;;5099452;28;20051;-65
2023/04/13 11:43:32;;;;;;;25.50;3.53;;;;;;;;;;5103284;28;20066;-64
2023/04/13 11:45:59;;;;;;;16.95;2.50;;;;;;;;;;5109071;27;20056;-65
2023/04/13 11:48:27;;;;;;;20.98;3.50;;;;;;;;;;5104463;28;20046;-65
2023/04/13 11:50:55;;;;;;;20.90;3.17;;;;;;;;;;5104653;28;20169;-65
2023/04/13 11:53:23;;;;;;;23.10;2.53;;;;;;;;;;5105001;28;20421;-64
2023/04/13 11:55:50;;;;;;;23.75;2.92;;;;;;;;;;5106022;28;20054;-64
2023/04/13 11:58:18;;;;;;;19.10;3.20;;;;;;;;;;5105803;28;20101;-65
2023/04/13 12:00:49;;;;;;;25.30;3.13;;;;;;;;;;5107711;28;20056;-65
2023/04/13 12:03:17;;;;;;;23.13;3.10;;;;;;;;;;5106740;28;20055;-65
2023/04/13 12:05:45;;;;;;;16.42;2.10;;;;;;;;;;5106310;28;20043;-65
2023/04/13 12:08:21;;;;;;;17.83;2.15;;;;;;;;;;5104959;28;20059;-65
2023/04/13 12:10:56;;;;;;;23.83;4.43;;;;;;;;;;5102847;28;20044;-65
2023/04/13 12:13:23;;;;;;;20.42;2.83;;;;;;;;;;5103390;28;20058;-65
2023/04/13 12:15:52;;;;;;;18.05;3.13;;;;;;;;;;5104044;28;20056;-65
2023/04/13 12:18:20;;;;;;;19.27;2.80;;;;;;;;;;5106164;28;20046;-65
2023/04/13 12:20:48;;;;;;;19.85;3.33;;;;;;;;;;5105102;28;20051;-65
2023/04/13 12:23:19;;;;;;;16.65;3.03;;;;;;;;;;5107177;28;20051;-65
2023/04/13 12:25:56;;;;;;;21.05;3.33;;;;;;;;;;5103925;28;21360;-65
2023/04/13 12:28:28;;;;;;;18.08;2.50;;;;;;;;;;5103377;28;20150;-65
2023/04/13 12:31:03;;;;;;;18.08;2.80;;;;;;;;;;5105951;28;20051;-65
2023/04/13 12:33:30;;;;;;;18.83;3.50;;;;;;;;;;5105947;28;20047;-66
2023/04/13 12:35:58;;;;;;;16.95;2.55;;;;;;;;;;5104777;28;20051;-65
2023/04/13 12:38:25;;;;;;;16.85;3.60;;;;;;;;;;5103900;28;20039;-66
2023/04/13 12:40:55;;;;;;;18.75;3.28;;;;;;;;;;5107439;28;20050;-66
2023/04/13 12:43:23;;;;;;;20.38;2.97;;;;;;;;;;5106502;28;20046;-65
2023/04/13 12:45:50;;;;;;;19.83;3.70;;;;;;;;;;5108958;28;20495;-66
2023/04/13 12:48:19;;;;;;;18.92;2.75;;;;;;;;;;5105042;28;20555;-66
2023/04/13 12:50:46;;;;;;;16.85;2.80;;;;;;;;;;5105484;28;20075;-66
2023/04/13 12:53:13;;;;;;;18.88;2.33;;;;;;;;;;5104902;28;20457;-66
2023/04/13 12:55:41;;;;;;;15.50;2.60;;;;;;;;;;5106188;28;20060;-65
2023/04/13 12:58:08;;;;;;;16.55;2.33;;;;;;;;;;5105881;28;20051;-66
2023/04/13 13:00:35;;;;;;;16.73;3.13;;;;;;;;;;5105794;28;20053;-65
2023/04/13 13:03:04;;;;;;;17.50;2.55;;;;;;;;;;5106167;28;20066;-65
2023/04/13 13:05:33;;;;;;;17.75;2.20;;;;;;;;;;5106799;28;20152;-66
2023/04/13 13:08:00;;;;;;;18.45;2.75;;;;;;;;;;5106678;28;20048;-65
2023/04/13 13:10:27;;;;;;;12.05;2.20;;;;;;;;;;5104676;28;20052;-65
2023/04/13 13:12:56;;;;;;;16.67;2.40;;;;;;;;;;5105093;28;20040;-65
2023/04/13 13:15:23;;;;;;;14.40;3.00;;;;;;;;;;5106031;28;20063;-65
2023/04/13 13:17:50;;;;;;;17.90;2.38;;;;;;;;;;5103162;28;20063;-66
2023/04/13 13:20:17;;;;;;;18.08;2.72;;;;;;;;;;5106237;28;20074;-66
2023/04/13 13:22:46;;;;;;;16.13;2.35;;;;;;;;;;5102039;28;20119;-69
2023/04/13 13:25:15;;;;;;;13.25;2.60;;;;;;;;;;5097927;28;20047;-69
2023/04/13 13:27:42;;;;;;;21.80;3.55;;;;;;;;;;5111584;27;20043;-69
2023/04/13 13:30:09;;;;;;;15.70;2.40;;;;;;;;;;5110110;28;20530;-69
2023/04/13 13:32:37;;;;;;;20.10;2.53;;;;;;;;;;5110528;27;20528;-69
2023/04/13 13:35:04;;;;;;;15.00;2.20;;;;;;;;;;5105857;27;20410;-70
2023/04/13 13:37:32;;;;;;;13.73;2.40;;;;;;;;;;5110308;28;20051;-69
2023/04/13 13:40:08;;;;;;;19.30;2.67;;;;;;;;;;5108759;28;20069;-69
2023/04/13 13:42:36;;;;;;;14.77;3.40;;;;;;;;;;5108582;28;20036;-69
2023/04/13 13:45:03;;;;;;;14.10;1.88;;;;;;;;;;5109104;28;20044;-69
2023/04/13 13:47:30;;;;;;;13.02;2.40;;;;;;;;;;5111427;27;20093;-70
2023/04/13 13:49:57;;;;;;;9.73;1.92;;;;;;;;;;5107843;27;20090;-69
2023/04/13 13:52:25;;;;;;;14.38;2.10;;;;;;;;;;5110855;27;20043;-69
2023/04/13 13:54:53;;;;;;;12.48;2.13;;;;;;;;;;5109873;28;20607;-70
2023/04/13 13:57:22;;;;;;;12.13;2.25;;;;;;;;;;5105213;28;20054;-70
2023/04/13 13:59:49;;;;;;;16.00;2.28;;;;;;;;;;5109684;28;20043;-69
2023/04/13 14:02:16;;;;;;;13.55;2.00;;;;;;;;;;5108975;27;20454;-69
2023/04/13 14:04:43;;;;;;;11.80;1.88;;;;;;;;;;5104704;28;20048;-69
2023/04/13 14:07:11;;;;;;;18.33;2.78;;;;;;;;;;5109619;28;20067;-69
2023/04/13 14:09:38;;;;;;;13.00;2.00;;;;;;;;;;5108320;28;20479;-70
2023/04/13 14:12:05;;;;;;;15.07;2.10;;;;;;;;;;5099414;28;20040;-69
2023/04/13 14:14:34;;;;;;;16.77;2.97;;;;;;;;;;5100222;28;20050;-69
2023/04/13 14:17:01;;;;;;;15.73;2.20;;;;;;;;;;5107341;28;20051;-70
2023/04/13 14:19:29;;;;;;;12.30;2.05;;;;;;;;;;5109151;28;20044;-70
2023/04/13 14:21:56;;;;;;;11.38;1.95;;;;;;;;;;5109200;28;20051;-69
2023/04/13 14:24:23;;;;;;;11.60;1.70;;;;;;;;;;5100669;28;20051;-70
2023/04/13 14:26:50;;;;;;;8.93;1.95;;;;;;;;;;5100562;27;20048;-70
2023/04/13 14:29:18;;;;;;;13.18;2.28;;;;;;;;;;5107183;28;20044;-70
2023/04/13 14:31:46;;;;;;;15.55;2.00;;;;;;;;;;5105913;28;20055;-70
2023/04/13 14:34:14;;;;;;;15.70;1.98;;;;;;;;;;5109069;28;20127;-70
2023/04/13 14:36:43;;;;;;;10.88;2.15;;;;;;;;;;5106770;28;20104;-70
2023/04/13 14:39:10;;;;;;;14.05;2.03;;;;;;;;;;5107340;28;20055;-70
2023/04/13 14:41:38;;;;;;;13.73;1.98;;;;;;;;;;5103077;28;20048;-70
2023/04/13 14:44:05;;;;;;;10.45;2.03;;;;;;;;;;5107825;28;20074;-70
2023/04/13 14:46:32;;;;;;;15.23;2.47;;;;;;;;;;5105758;28;20051;-70
2023/04/13 14:49:01;;;;;;;13.10;2.47;;;;;;;;;;5109120;28;20798;-70